Time;durP1;ratioP1;P1;durP2;ratioP2;P2;SDS_P1;SDS_P2;PMS_P1;PMS_P2;Temp;Humidity;BMP_temperature;BMP_pressure;BME280_temperature;BME280_humidity;BME280_pressure;Samples;Min_cycle;Max_cycle;Signal;HPM_P1;HPM_P2
2022/08/13 00:00:58;;;;;;;5.87;4.63;;;21.40;69.00;;;;;;5033761;28;20427;-75
2022/08/13 00:03:28;;;;;;;5.10;4.60;;;21.40;69.10;;;;;;5032413;28;20490;-76
2022/08/13 00:06:22;;;;;;;5.50;4.97;;;21.30;69.20;;;;;;5032463;28;20470;-75
2022/08/13 00:08:56;;;;;;;5.10;4.60;;;21.30;69.30;;;;;;5033538;28;20892;-75
2022/08/13 00:14:31;;;;;;;4.97;4.43;;;21.20;69.70;;;;;;5033807;28;20426;-76
2022/08/13 00:17:06;;;;;;;5.33;4.47;;;21.10;69.70;;;;;;5033989;28;20461;-75
2022/08/13 00:19:38;;;;;;;5.87;4.37;;;21.10;69.90;;;;;;5032540;28;20526;-76
2022/08/13 00:22:08;;;;;;;4.63;4.20;;;21.00;70.00;;;;;;5032996;28;20439;-76
2022/08/13 00:24:57;;;;;;;5.07;4.57;;;21.00;70.20;;;;;;5032020;28;20489;-76
2022/08/13 00:27:28;;;;;;;4.73;4.20;;;20.90;70.30;;;;;;5033388;28;20775;-76
2022/08/13 00:30:17;;;;;;;7.30;5.03;;;20.90;70.40;;;;;;5032010;28;20453;-76
2022/08/13 00:33:01;;;;;;;7.30;5.00;;;20.90;70.60;;;;;;5033475;28;20427;-76
2022/08/13 00:35:30;;;;;;;5.27;4.77;;;20.80;70.70;;;;;;5033252;28;20474;-76
2022/08/13 00:38:09;;;;;;;5.80;5.20;;;20.80;70.90;;;;;;5031928;28;20445;-75
2022/08/13 00:40:42;;;;;;;4.87;4.47;;;20.70;71.20;;;;;;5033232;28;20878;-75
2022/08/13 00:43:25;;;;;;;5.13;4.00;;;20.70;71.40;;;;;;5033354;28;20871;-76
2022/08/13 00:45:55;;;;;;;4.67;4.20;;;20.60;71.40;;;;;;5034737;28;20458;-76
2022/08/13 00:51:21;;;;;;;5.43;4.90;;;20.50;71.70;;;;;;5034498;28;20423;-75
2022/08/13 00:54:12;;;;;;;5.70;4.57;;;20.50;71.90;;;;;;5033598;28;20434;-75
2022/08/13 00:56:40;;;;;;;4.83;4.17;;;20.50;72.00;;;;;;5031789;28;20482;-75
2022/08/13 00:59:12;;;;;;;5.67;4.53;;;20.40;72.20;;;;;;5033458;28;20439;-75
2022/08/13 01:01:42;;;;;;;4.50;4.10;;;20.40;72.50;;;;;;5033429;28;20469;-76
2022/08/13 01:04:20;;;;;;;6.50;4.97;;;20.30;72.50;;;;;;5033933;28;20422;-75
2022/08/13 01:06:57;;;;;;;5.67;5.13;;;20.30;72.70;;;;;;5032875;28;20834;-75
2022/08/13 01:09:29;;;;;;;5.23;4.60;;;20.20;72.80;;;;;;5031657;28;20443;-75
2022/08/13 01:12:20;;;;;;;4.63;4.20;;;20.20;72.90;;;;;;5032812;28;20932;-75
2022/08/13 01:14:55;;;;;;;4.90;4.23;;;20.20;73.10;;;;;;5033108;28;20880;-75
2022/08/13 01:17:27;;;;;;;5.47;4.97;;;20.20;73.30;;;;;;5033258;28;20848;-74
2022/08/13 01:20:20;;;;;;;6.63;5.33;;;20.10;73.50;;;;;;5031588;28;20443;-74
2022/08/13 01:23:04;;;;;;;6.43;4.70;;;20.10;73.60;;;;;;5032988;28;20528;-75
2022/08/13 01:25:32;;;;;;;4.93;4.47;;;20.10;73.80;;;;;;5032732;28;20470;-75
2022/08/13 01:28:22;;;;;;;5.10;4.70;;;20.00;73.90;;;;;;5033315;28;20430;-75
2022/08/13 01:30:52;;;;;;;5.27;4.57;;;19.90;73.90;;;;;;5035551;28;20426;-74
2022/08/13 01:33:21;;;;;;;5.43;4.80;;;19.90;74.10;;;;;;5036532;28;20526;-75
2022/08/13 01:35:53;;;;;;;4.80;4.33;;;19.90;74.20;;;;;;5034989;28;20481;-75
2022/08/13 01:38:26;;;;;;;6.30;4.80;;;19.90;74.50;;;;;;5036560;28;20423;-76
2022/08/13 01:40:56;;;;;;;4.80;4.30;;;19.80;74.60;;;;;;5036910;28;20512;-75
2022/08/13 01:43:30;;;;;;;4.83;4.33;;;19.80;75.40;;;;;;5035157;28;20447;-75
2022/08/13 01:45:59;;;;;;;5.37;4.40;;;19.70;74.90;;;;;;5035646;28;20489;-77
2022/08/13 01:51:29;;;;;;;5.63;5.17;;;19.70;75.20;;;;;;5036304;28;20439;-75
2022/08/13 01:54:09;;;;;;;5.57;4.90;;;19.60;75.20;;;;;;5036344;28;20817;-75
2022/08/13 01:56:59;;;;;;;6.60;5.60;;;19.60;75.30;;;;;;5034587;28;20475;-75
2022/08/13 01:59:29;;;;;;;4.87;4.40;;;19.60;75.40;;;;;;5034811;28;20454;-74
2022/08/13 02:02:17;;;;;;;4.80;4.40;;;19.50;75.40;;;;;;5035865;28;20435;-75
2022/08/13 02:05:10;;;;;;;5.17;4.77;;;19.50;75.60;;;;;;5035770;28;20498;-75
2022/08/13 02:07:39;;;;;;;5.10;4.60;;;19.50;75.80;;;;;;5036073;28;20437;-75
2022/08/13 02:10:29;;;;;;;4.80;4.40;;;19.40;76.00;;;;;;5036039;28;20889;-75
2022/08/13 02:13:00;;;;;;;5.07;4.17;;;19.40;76.10;;;;;;5035956;28;20783;-74
2022/08/13 02:15:28;;;;;;;5.90;5.03;;;19.40;76.30;;;;;;5035783;28;21017;-75
2022/08/13 02:18:14;;;;;;;6.73;4.80;;;19.40;76.40;;;;;;5036273;28;20465;-75
2022/08/13 02:20:46;;;;;;;4.73;4.33;;;19.30;76.50;;;;;;5034195;28;20876;-75
2022/08/13 02:23:19;;;;;;;5.63;5.03;;;19.30;76.70;;;;;;5035178;28;20431;-75
2022/08/13 02:26:08;;;;;;;7.23;5.00;;;19.20;76.80;;;;;;5033970;28;20466;-74
2022/08/13 02:28:39;;;;;;;5.40;4.90;;;19.20;77.00;;;;;;5035519;28;20522;-75
2022/08/13 02:31:12;;;;;;;5.27;4.80;;;19.20;77.10;;;;;;5033988;28;20451;-75
2022/08/13 02:34:01;;;;;;;6.07;5.47;;;19.10;77.20;;;;;;5033998;28;20943;-74
2022/08/13 02:36:30;;;;;;;5.87;5.27;;;19.10;77.30;;;;;;5033933;28;20579;-75
2022/08/13 02:39:00;;;;;;;5.73;5.23;;;19.10;77.50;;;;;;5035092;28;20435;-76
2022/08/13 02:41:43;;;;;;;5.90;5.40;;;19.00;77.60;;;;;;5034432;28;20446;-75
2022/08/13 02:44:21;;;;;;;5.77;4.97;;;19.00;77.70;;;;;;5035652;28;20419;-76
2022/08/13 02:47:04;;;;;;;6.77;5.10;;;19.00;77.90;;;;;;5035329;28;20510;-76
2022/08/13 02:49:32;;;;;;;5.90;5.30;;;18.90;77.90;;;;;;5035339;28;20957;-75
2022/08/13 02:52:15;;;;;;;5.90;5.40;;;18.90;78.00;;;;;;5034398;28;20482;-76
2022/08/13 02:54:47;;;;;;;5.30;4.80;;;18.90;78.20;;;;;;5035333;28;20473;-76
2022/08/13 02:57:26;;;;;;;6.47;5.13;;;18.80;78.30;;;;;;5033637;28;20466;-75
2022/08/13 02:59:58;;;;;;;6.33;5.63;;;18.80;78.50;;;;;;5035103;28;20777;-75
2022/08/13 03:02:35;;;;;;;5.80;5.30;;;18.80;78.60;;;;;;5035114;28;20423;-75
2022/08/13 03:05:08;;;;;;;6.10;5.50;;;18.70;78.70;;;;;;5034826;28;20454;-75
2022/08/13 03:07:41;;;;;;;5.53;5.03;;;18.70;78.80;;;;;;5033679;28;20438;-75
2022/08/13 03:10:22;;;;;;;5.70;5.13;;;18.70;79.00;;;;;;5033411;28;20441;-76
2022/08/13 03:13:15;;;;;;;7.30;5.50;;;18.60;79.00;;;;;;5034830;28;20431;-75
2022/08/13 03:15:50;;;;;;;6.00;5.50;;;18.60;79.20;;;;;;5034671;28;20467;-75
2022/08/13 03:18:30;;;;;;;6.20;5.60;;;18.60;79.40;;;;;;5034632;28;20486;-75
2022/08/13 03:21:20;;;;;;;9.73;8.77;;;18.60;79.50;;;;;;5035067;28;20450;-76
2022/08/13 03:24:10;;;;;;;10.60;9.50;;;18.50;79.40;;;;;;5034275;28;20463;-75
2022/08/13 03:26:38;;;;;;;22.17;19.83;;;18.50;79.60;;;;;;5034428;28;20474;-75
2022/08/13 03:29:09;;;;;;;28.20;25.17;;;18.50;79.70;;;;;;5034240;28;20439;-75
2022/08/13 03:31:39;;;;;;;30.37;27.27;;;18.40;79.80;;;;;;5034733;28;20423;-75
2022/08/13 03:34:22;;;;;;;27.90;24.00;;;18.40;79.90;;;;;;5034455;28;20877;-75
2022/08/13 03:36:53;;;;;;;18.40;16.40;;;18.40;80.00;;;;;;5033971;28;20447;-75
2022/08/13 03:39:25;;;;;;;16.90;13.67;;;18.40;80.10;;;;;;5034454;28;20456;-75
2022/08/13 03:41:55;;;;;;;11.60;10.50;;;18.40;80.20;;;;;;5034051;28;20435;-75
2022/08/13 03:44:29;;;;;;;7.30;6.63;;;18.30;80.80;;;;;;5034296;28;20427;-75
2022/08/13 03:47:03;;;;;;;6.13;5.60;;;18.30;80.30;;;;;;5033940;28;20459;-74
2022/08/13 03:49:52;;;;;;;6.07;5.37;;;18.30;80.40;;;;;;5035666;28;20538;-73
2022/08/13 03:52:20;;;;;;;7.20;5.20;;;18.30;80.50;;;;;;5033768;28;20442;-74
2022/08/13 03:55:01;;;;;;;6.07;5.20;;;18.20;80.50;;;;;;5035230;28;20458;-73
2022/08/13 03:57:30;;;;;;;5.93;5.33;;;18.20;80.70;;;;;;5034020;28;20471;-74
2022/08/13 04:00:20;;;;;;;6.00;5.40;;;18.20;81.40;;;;;;5034065;28;20434;-73
2022/08/13 04:02:52;;;;;;;8.43;6.30;;;18.20;81.00;;;;;;5032433;28;20824;-74
2022/08/13 04:05:22;;;;;;;8.20;5.70;;;18.10;81.00;;;;;;5033996;28;20459;-74
2022/08/13 04:08:11;;;;;;;5.30;4.70;;;18.10;81.10;;;;;;5032648;28;20948;-74
2022/08/13 04:10:42;;;;;;;5.77;5.27;;;18.10;81.10;;;;;;5033614;28;20439;-74
2022/08/13 04:13:22;;;;;;;6.33;5.77;;;18.10;81.20;;;;;;5033554;28;20493;-74
2022/08/13 04:16:13;;;;;;;5.37;4.87;;;18.10;81.30;;;;;;5033773;28;20537;-73
2022/08/13 04:18:44;;;;;;;5.43;4.93;;;18.00;81.30;;;;;;5034012;28;20455;-74
2022/08/13 04:21:15;;;;;;;6.30;5.60;;;18.00;81.40;;;;;;5033541;28;20419;-75
2022/08/13 04:23:51;;;;;;;6.53;5.90;;;18.00;81.60;;;;;;5033532;28;20454;-74
2022/08/13 04:26:24;;;;;;;6.30;5.70;;;18.00;81.80;;;;;;5033991;28;20455;-73
2022/08/13 04:29:02;;;;;;;7.13;5.33;;;18.00;81.90;;;;;;5033782;28;20433;-73
2022/08/13 04:31:32;;;;;;;6.17;5.57;;;17.90;82.60;;;;;;5033373;28;20415;-74
2022/08/13 04:34:19;;;;;;;7.27;5.90;;;17.90;82.10;;;;;;5033637;28;20780;-74
2022/08/13 04:37:08;;;;;;;6.23;5.60;;;17.90;82.30;;;;;;5032378;28;20450;-74
2022/08/13 04:39:50;;;;;;;7.80;5.40;;;17.90;82.60;;;;;;5033703;28;20442;-74
2022/08/13 04:42:48;;;;;;;7.13;6.17;;;17.90;82.80;;;;;;5032028;28;20907;-73
2022/08/13 04:45:18;;;;;;;6.37;5.87;;;17.90;83.60;;;;;;5033809;28;20524;-73
2022/08/13 04:47:54;;;;;;;8.00;5.33;;;17.90;83.10;;;;;;5033832;28;20426;-73
2022/08/13 04:50:24;;;;;;;6.07;5.40;;;17.90;83.30;;;;;;5033896;28;20488;-74
2022/08/13 04:52:56;;;;;;;6.50;5.90;;;17.90;83.50;;;;;;5033478;28;20431;-74
2022/08/13 04:55:26;;;;;;;7.63;5.63;;;17.90;83.70;;;;;;5033472;28;20825;-74
2022/08/13 04:58:15;;;;;;;7.20;5.90;;;17.90;83.90;;;;;;5033351;28;20459;-74
2022/08/13 05:00:45;;;;;;;5.93;5.43;;;17.90;84.10;;;;;;5031887;28;20446;-74
2022/08/13 05:03:23;;;;;;;6.23;5.63;;;17.90;84.20;;;;;;5033115;28;20426;-74
2022/08/13 05:06:12;;;;;;;6.27;5.67;;;17.90;84.40;;;;;;5035845;28;20455;-73
2022/08/13 05:08:41;;;;;;;6.03;5.50;;;17.90;84.60;;;;;;5037268;28;20462;-74
2022/08/13 05:11:23;;;;;;;6.10;5.60;;;17.90;84.80;;;;;;5035838;28;20789;-74
2022/08/13 05:13:51;;;;;;;6.73;6.03;;;17.90;85.00;;;;;;5036933;28;20971;-74
2022/08/13 05:16:23;;;;;;;5.90;5.30;;;17.90;85.30;;;;;;5036935;28;20505;-75
2022/08/13 05:18:57;;;;;;;5.80;5.30;;;17.90;85.50;;;;;;5035456;28;20459;-74
2022/08/13 05:21:26;;;;;;;7.17;6.13;;;17.90;85.70;;;;;;5035681;28;20437;-74
2022/08/13 05:24:14;;;;;;;8.00;6.57;;;18.00;86.00;;;;;;5037034;28;20455;-74
2022/08/13 05:27:02;;;;;;;6.73;5.60;;;18.00;86.10;;;;;;5037235;28;20541;-74
2022/08/13 05:29:38;;;;;;;6.37;5.77;;;18.00;86.30;;;;;;5037072;28;20797;-74
2022/08/13 05:32:27;;;;;;;6.67;6.07;;;18.00;86.40;;;;;;5035204;28;20446;-75
2022/08/13 05:35:06;;;;;;;6.87;5.50;;;18.00;86.70;;;;;;5035387;28;20470;-74
2022/08/13 05:37:36;;;;;;;6.47;5.90;;;18.10;86.90;;;;;;5036482;28;20454;-75
2022/08/13 05:40:24;;;;;;;6.83;6.20;;;18.10;87.00;;;;;;5035180;28;20928;-74
2022/08/13 05:43:10;;;;;;;7.13;5.80;;;18.10;87.00;;;;;;5036700;28;20857;-75
2022/08/13 05:45:38;;;;;;;6.27;5.77;;;18.10;87.10;;;;;;5034918;28;20893;-75
2022/08/13 05:48:20;;;;;;;6.53;5.83;;;18.20;87.40;;;;;;5036577;28;20506;-74
2022/08/13 05:50:59;;;;;;;7.57;6.77;;;18.30;87.70;;;;;;5036413;28;20816;-74
2022/08/13 05:53:28;;;;;;;6.47;4.80;;;18.40;87.90;;;;;;5036476;28;20427;-75
2022/08/13 05:56:16;;;;;;;5.70;4.70;;;18.40;87.90;;;;;;5036776;28;20463;-74
2022/08/13 05:58:45;;;;;;;8.93;5.90;;;18.50;87.90;;;;;;5034763;28;20821;-74
2022/08/13 06:04:03;;;;;;;6.73;4.97;;;18.80;88.00;;;;;;5015315;28;20443;-74
2022/08/13 06:06:52;;;;;;;7.03;6.00;;;19.00;87.80;;;;;;5035187;28;20867;-75
2022/08/13 06:09:20;;;;;;;8.73;5.47;;;19.20;87.60;;;;;;5035932;28;20454;-74
2022/08/13 06:11:49;;;;;;;5.90;5.40;;;19.50;87.60;;;;;;5036174;28;20534;-75
2022/08/13 06:14:37;;;;;;;8.03;5.57;;;19.80;87.80;;;;;;5036100;28;20435;-74
2022/08/13 06:17:07;;;;;;;5.87;5.27;;;20.10;88.30;;;;;;5034526;28;20443;-75
2022/08/13 06:19:43;;;;;;;4.50;4.03;;;20.40;87.60;;;;;;5035715;28;20459;-74
2022/08/13 06:22:20;;;;;;;5.13;4.73;;;20.70;87.30;;;;;;5036139;28;20518;-74
2022/08/13 06:24:48;;;;;;;5.20;4.70;;;21.00;87.10;;;;;;5035441;28;20820;-75
2022/08/13 06:27:21;;;;;;;7.30;4.60;;;21.30;86.80;;;;;;5036272;28;20451;-74
2022/08/13 06:30:11;;;;;;;4.80;4.30;;;21.60;86.60;;;;;;5035434;28;20507;-74
2022/08/13 06:32:44;;;;;;;6.87;5.17;;;22.00;86.60;;;;;;5034317;28;20446;-75
2022/08/13 06:35:34;;;;;;;16.50;11.70;;;22.30;86.60;;;;;;5035592;28;20502;-75
2022/08/13 06:38:17;;;;;;;7.60;6.60;;;22.70;86.50;;;;;;5034063;28;20458;-75
2022/08/13 06:40:59;;;;;;;7.40;4.73;;;23.00;86.20;;;;;;5035762;28;20492;-76
2022/08/13 06:43:30;;;;;;;5.13;4.63;;;23.30;85.80;;;;;;5035629;28;20435;-77
2022/08/13 06:46:22;;;;;;;4.80;4.27;;;23.60;85.50;;;;;;5035535;28;20790;-75
2022/08/13 06:48:58;;;;;;;7.33;5.20;;;23.90;85.20;;;;;;5035309;28;20466;-75
2022/08/13 06:51:30;;;;;;;4.10;3.63;;;24.20;84.60;;;;;;5035525;28;20901;-75
2022/08/13 06:54:09;;;;;;;4.43;4.03;;;24.40;84.10;;;;;;5035834;28;20869;-75
2022/08/13 06:56:57;;;;;;;4.60;4.20;;;24.70;83.90;;;;;;5035491;28;20460;-76
2022/08/13 06:59:41;;;;;;;4.40;4.00;;;25.00;83.40;;;;;;5033975;28;20463;-76
2022/08/13 07:02:32;;;;;;;9.87;4.53;;;25.30;82.80;;;;;;5035844;28;20438;-77
2022/08/13 07:05:00;;;;;;;6.30;4.50;;;25.50;82.30;;;;;;5035883;28;20910;-76
2022/08/13 07:07:34;;;;;;;4.83;4.30;;;25.70;82.00;;;;;;5036269;28;20474;-76
2022/08/13 07:10:05;;;;;;;6.60;4.57;;;25.90;81.30;;;;;;5035703;28;20443;-76
2022/08/13 07:12:34;;;;;;;6.60;4.50;;;26.10;80.70;;;;;;5035955;28;20435;-76
2022/08/13 07:15:04;;;;;;;7.50;4.30;;;26.30;80.50;;;;;;5036402;28;20450;-76
2022/08/13 07:17:45;;;;;;;6.70;6.10;;;26.50;80.30;;;;;;5036190;28;20426;-77
2022/08/13 07:20:13;;;;;;;6.87;6.13;;;26.70;80.00;;;;;;5035180;28;20490;-75
2022/08/13 07:22:52;;;;;;;5.60;4.90;;;26.80;79.60;;;;;;5035192;28;20771;-77
2022/08/13 07:25:44;;;;;;;6.03;4.50;;;27.00;79.40;;;;;;5033889;28;20467;-75
2022/08/13 07:28:27;;;;;;;5.67;5.07;;;27.20;79.20;;;;;;5033110;28;20435;-75
2022/08/13 07:31:17;;;;;;;5.23;4.20;;;27.40;78.70;;;;;;5034872;28;20431;-76
2022/08/13 07:33:53;;;;;;;4.97;4.23;;;27.50;78.20;;;;;;5034572;28;20418;-76
2022/08/13 07:36:29;;;;;;;4.83;4.20;;;27.70;78.00;;;;;;5034574;28;20997;-76
2022/08/13 07:38:58;;;;;;;4.67;3.73;;;27.80;77.80;;;;;;5035121;28;20559;-76
2022/08/13 07:41:29;;;;;;;4.57;3.90;;;28.00;77.50;;;;;;5034451;28;20855;-76
2022/08/13 07:44:01;;;;;;;4.53;3.70;;;28.10;77.00;;;;;;5035694;28;20493;-76
2022/08/13 07:46:42;;;;;;;3.73;3.33;;;28.20;76.90;;;;;;5032973;28;20840;-76
2022/08/13 07:49:25;;;;;;;3.90;3.60;;;28.30;76.70;;;;;;5033282;28;20450;-76
2022/08/13 07:52:13;;;;;;;6.87;4.20;;;28.50;76.20;;;;;;5033042;28;20435;-76
2022/08/13 07:54:45;;;;;;;4.13;3.43;;;28.60;75.30;;;;;;5034292;28;20889;-76
2022/08/13 07:57:18;;;;;;;3.73;3.43;;;28.70;75.00;;;;;;5034556;28;20905;-76
2022/08/13 08:00:07;;;;;;;9.30;6.60;;;28.80;74.70;;;;;;5034496;28;20458;-76
2022/08/13 08:02:45;;;;;;;7.17;4.93;;;28.90;74.50;;;;;;5032948;28;20441;-78
2022/08/13 08:05:14;;;;;;;5.30;3.40;;;29.00;74.20;;;;;;5032979;28;20463;-76
2022/08/13 08:07:51;;;;;;;5.97;3.03;;;29.10;73.60;;;;;;5035913;28;20437;-78
2022/08/13 08:10:37;;;;;;;4.13;3.20;;;29.20;73.00;;;;;;5036175;28;20419;-77
2022/08/13 08:13:09;;;;;;;6.23;3.20;;;29.30;72.60;;;;;;5033798;28;20524;-77
2022/08/13 08:15:42;;;;;;;5.40;3.10;;;29.30;72.20;;;;;;5035450;28;20529;-77
2022/08/13 08:18:33;;;;;;;5.50;3.80;;;29.40;71.50;;;;;;5034251;28;20442;-76
2022/08/13 08:21:23;;;;;;;3.97;3.20;;;29.50;71.30;;;;;;5034178;28;20960;-77
2022/08/13 08:24:13;;;;;;;3.30;3.00;;;29.60;70.90;;;;;;5034005;28;20456;-75
2022/08/13 08:26:48;;;;;;;3.70;3.03;;;29.60;70.30;;;;;;5033069;28;20482;-76
2022/08/13 08:29:18;;;;;;;7.40;3.33;;;29.70;70.50;;;;;;5034578;28;20447;-76
2022/08/13 08:31:50;;;;;;;3.83;3.50;;;29.70;70.00;;;;;;5033813;28;20521;-76
2022/08/13 08:34:29;;;;;;;4.43;3.20;;;29.80;69.50;;;;;;5034019;28;20852;-77
2022/08/13 08:36:58;;;;;;;3.10;2.80;;;29.90;69.20;;;;;;5032329;28;20470;-77
2022/08/13 08:42:38;;;;;;;5.67;3.63;;;29.90;69.00;;;;;;5036519;28;20439;-77
2022/08/13 08:45:27;;;;;;;5.43;3.57;;;30.00;68.90;;;;;;5037867;28;21050;-76
2022/08/13 08:48:19;;;;;;;3.30;3.00;;;30.10;68.40;;;;;;5038921;28;20521;-78
2022/08/13 08:51:00;;;;;;;6.47;2.93;;;30.20;68.10;;;;;;5041458;28;20450;-77
2022/08/13 08:53:35;;;;;;;5.40;2.67;;;30.20;67.90;;;;;;5041296;28;20446;-77
2022/08/13 08:56:23;;;;;;;4.30;3.27;;;30.30;67.80;;;;;;5037278;28;20976;-76
2022/08/13 08:58:55;;;;;;;4.87;3.40;;;30.30;67.40;;;;;;5038297;28;20990;-77
2022/08/13 09:01:27;;;;;;;4.93;3.17;;;30.40;67.00;;;;;;5038080;28;21015;-76
2022/08/13 09:04:05;;;;;;;3.27;2.90;;;30.40;66.60;;;;;;5038232;28;20430;-76
2022/08/13 09:06:34;;;;;;;3.13;2.83;;;30.40;66.50;;;;;;5037565;28;20462;-76
2022/08/13 09:09:22;;;;;;;3.53;3.10;;;30.50;66.20;;;;;;5037917;28;20445;-76
2022/08/13 09:11:55;;;;;;;4.73;3.37;;;30.50;65.90;;;;;;5036271;28;20876;-76
2022/08/13 09:14:26;;;;;;;3.50;2.97;;;30.60;65.70;;;;;;5037642;28;20426;-77
2022/08/13 09:17:00;;;;;;;8.83;3.30;;;30.60;65.20;;;;;;5037535;28;20554;-77
2022/08/13 09:19:28;;;;;;;4.50;3.20;;;30.60;65.10;;;;;;5038617;28;20881;-75
2022/08/13 09:22:21;;;;;;;4.43;4.00;;;30.70;64.90;;;;;;5037386;28;20449;-76
2022/08/13 09:24:56;;;;;;;4.60;3.40;;;30.70;64.20;;;;;;5037886;28;20450;-77
2022/08/13 09:27:28;;;;;;;4.70;3.50;;;30.70;64.00;;;;;;5037573;28;20819;-76
2022/08/13 09:30:17;;;;;;;5.30;3.27;;;30.70;64.00;;;;;;5035858;28;20932;-75
2022/08/13 09:32:53;;;;;;;4.50;3.33;;;30.80;64.40;;;;;;5035825;28;21058;-76
2022/08/13 09:35:25;;;;;;;5.87;3.10;;;30.80;64.10;;;;;;5037166;28;20466;-77
2022/08/13 09:38:02;;;;;;;3.60;3.07;;;30.90;63.80;;;;;;5035610;28;20869;-76
2022/08/13 09:40:33;;;;;;;5.57;3.10;;;31.00;63.70;;;;;;5036674;28;20512;-76
2022/08/13 09:43:20;;;;;;;3.57;3.27;;;31.00;63.70;;;;;;5036741;28;20492;-76
2022/08/13 09:46:09;;;;;;;4.20;3.53;;;31.10;63.80;;;;;;5036454;28;20463;-76
2022/08/13 09:48:38;;;;;;;5.70;3.70;;;31.10;63.50;;;;;;5035342;28;20454;-76
2022/08/13 09:51:13;;;;;;;4.20;3.33;;;31.20;63.50;;;;;;5037654;28;20818;-78
2022/08/13 09:54:02;;;;;;;3.70;3.40;;;31.20;63.40;;;;;;5036840;28;20887;-77
2022/08/13 09:56:37;;;;;;;4.60;3.73;;;31.30;63.20;;;;;;5036485;28;20463;-76
2022/08/13 09:59:06;;;;;;;4.20;3.80;;;31.30;63.20;;;;;;5036318;28;20857;-76
2022/08/13 10:01:42;;;;;;;4.00;3.70;;;31.30;63.50;;;;;;5036647;28;20458;-76
2022/08/13 10:04:26;;;;;;;3.77;3.37;;;31.30;63.20;;;;;;5035144;28;20443;-78
2022/08/13 10:06:58;;;;;;;4.27;3.87;;;31.40;63.10;;;;;;5034977;28;20996;-74
2022/08/13 10:09:38;;;;;;;5.53;4.30;;;31.40;63.00;;;;;;5036394;28;20861;-76
2022/08/13 10:12:27;;;;;;;4.33;3.93;;;31.40;62.70;;;;;;5035027;28;20479;-76
2022/08/13 10:14:56;;;;;;;4.13;3.70;;;31.40;62.50;;;;;;5036163;28;20435;-76
2022/08/13 10:17:26;;;;;;;4.67;4.20;;;31.40;62.20;;;;;;5036173;28;20439;-75
2022/08/13 10:20:18;;;;;;;4.90;3.97;;;31.40;62.00;;;;;;5035119;28;20455;-76
2022/08/13 10:22:47;;;;;;;6.33;4.20;;;31.50;62.50;;;;;;5035991;28;20826;-75
2022/08/13 10:25:16;;;;;;;4.17;3.80;;;31.50;62.10;;;;;;5034899;28;20497;-74
2022/08/13 10:27:47;;;;;;;4.27;3.90;;;31.50;62.10;;;;;;5035101;28;20443;-76
2022/08/13 10:30:18;;;;;;;4.07;3.63;;;31.50;62.00;;;;;;5035323;28;20812;-75
2022/08/13 10:33:08;;;;;;;5.23;3.93;;;31.40;61.70;;;;;;5035857;28;20884;-76
2022/08/13 10:35:38;;;;;;;4.60;3.83;;;31.40;61.60;;;;;;5036122;28;20474;-75
2022/08/13 10:38:16;;;;;;;4.30;3.90;;;31.30;61.50;;;;;;5035708;28;20420;-75
2022/08/13 10:40:47;;;;;;;5.33;4.10;;;31.30;61.30;;;;;;5035524;28;20459;-76
2022/08/13 10:43:17;;;;;;;8.17;3.80;;;31.40;61.30;;;;;;5035999;28;20856;-76
2022/08/13 10:45:56;;;;;;;4.80;3.87;;;31.40;61.10;;;;;;5035648;28;20466;-76
2022/08/13 10:48:39;;;;;;;4.37;3.83;;;31.40;61.10;;;;;;5035701;28;20514;-76
2022/08/13 10:51:09;;;;;;;4.30;3.90;;;31.50;61.10;;;;;;5035289;28;20534;-76
2022/08/13 10:53:58;;;;;;;5.23;3.97;;;31.50;61.10;;;;;;5035264;28;20435;-76
2022/08/13 10:56:30;;;;;;;4.30;3.90;;;31.50;60.80;;;;;;5035290;28;20553;-76
2022/08/13 10:59:00;;;;;;;4.77;3.90;;;31.60;60.50;;;;;;5034385;28;20454;-76
2022/08/13 11:01:29;;;;;;;4.00;3.70;;;31.60;60.50;;;;;;5033794;28;20471;-77
2022/08/13 11:04:00;;;;;;;4.63;3.97;;;31.60;60.40;;;;;;5033146;28;20878;-76
2022/08/13 11:06:35;;;;;;;5.90;3.50;;;31.60;60.10;;;;;;5035140;28;20988;-76
2022/08/13 11:09:06;;;;;;;4.10;3.70;;;31.60;59.80;;;;;;5035493;28;20415;-76
2022/08/13 11:11:55;;;;;;;4.10;3.80;;;31.60;59.60;;;;;;5034924;28;20470;-75
2022/08/13 11:14:28;;;;;;;4.07;3.67;;;31.60;59.70;;;;;;5035036;28;20415;-76
2022/08/13 11:17:04;;;;;;;4.30;3.90;;;31.50;59.70;;;;;;5036106;28;20994;-76
2022/08/13 11:19:45;;;;;;;4.20;3.80;;;31.50;59.60;;;;;;5035366;28;20419;-75
2022/08/13 11:22:23;;;;;;;4.47;4.07;;;31.40;59.70;;;;;;5035282;28;20458;-75
2022/08/13 11:24:56;;;;;;;4.70;3.63;;;31.30;59.50;;;;;;5034909;28;20887;-76
2022/08/13 11:27:25;;;;;;;3.97;3.63;;;31.30;59.50;;;;;;5034704;28;20423;-75
2022/08/13 11:30:16;;;;;;;4.73;4.33;;;31.20;59.50;;;;;;5033420;28;20864;-75
2022/08/13 11:32:59;;;;;;;4.90;3.70;;;31.10;59.40;;;;;;5037929;28;20437;-75
2022/08/13 11:35:32;;;;;;;5.50;4.00;;;31.00;59.50;;;;;;5033386;28;20478;-75
2022/08/13 11:38:07;;;;;;;4.40;4.00;;;31.10;59.70;;;;;;5033547;28;20465;-76
2022/08/13 11:40:36;;;;;;;8.63;5.63;;;31.10;59.80;;;;;;5034838;28;20844;-75
2022/08/13 11:43:07;;;;;;;4.63;4.13;;;31.20;60.40;;;;;;5034461;28;20517;-76
2022/08/13 11:45:45;;;;;;;4.30;3.90;;;31.30;60.40;;;;;;5033062;28;20469;-76
2022/08/13 11:48:16;;;;;;;5.20;4.70;;;31.40;60.70;;;;;;5034155;28;20439;-76
2022/08/13 11:50:47;;;;;;;4.60;4.20;;;31.50;60.70;;;;;;5033147;28;20820;-75
2022/08/13 11:53:17;;;;;;;4.43;4.00;;;31.60;60.30;;;;;;5034314;28;20439;-76
2022/08/13 11:55:49;;;;;;;4.73;4.00;;;31.60;60.10;;;;;;5034352;28;20490;-75
2022/08/13 11:58:28;;;;;;;4.43;4.03;;;31.60;60.10;;;;;;5034151;28;20465;-75
2022/08/13 12:01:16;;;;;;;5.00;4.60;;;31.50;60.60;;;;;;5034975;28;20478;-75
2022/08/13 12:03:54;;;;;;;4.23;3.77;;;31.60;59.90;;;;;;5034446;28;20414;-76
2022/08/13 12:06:43;;;;;;;4.97;4.47;;;31.60;59.80;;;;;;5034550;28;20507;-75
2022/08/13 12:09:18;;;;;;;4.90;4.47;;;31.60;59.80;;;;;;5035295;28;20822;-75
2022/08/13 12:12:07;;;;;;;5.10;4.60;;;31.50;59.70;;;;;;5033022;28;20517;-76
2022/08/13 12:14:47;;;;;;;5.70;4.23;;;31.40;59.60;;;;;;5033701;28;20441;-76
2022/08/13 12:17:17;;;;;;;5.93;4.30;;;31.40;59.70;;;;;;5033866;28;20494;-75
2022/08/13 12:20:07;;;;;;;4.80;4.37;;;31.40;59.60;;;;;;5034287;28;20478;-76
2022/08/13 12:22:49;;;;;;;4.30;4.00;;;31.40;59.80;;;;;;5033772;28;20490;-75
2022/08/13 12:25:21;;;;;;;5.23;4.50;;;31.50;60.10;;;;;;5032373;28;20471;-75
2022/08/13 12:28:12;;;;;;;5.30;4.80;;;31.50;60.00;;;;;;5033879;28;21011;-75
2022/08/13 12:30:50;;;;;;;6.33;4.90;;;31.50;60.00;;;;;;5033911;28;20442;-76
2022/08/13 12:33:19;;;;;;;4.83;4.43;;;31.50;60.10;;;;;;5033696;28;20964;-75
2022/08/13 12:35:50;;;;;;;4.63;4.20;;;31.40;60.10;;;;;;5034127;28;20455;-75
2022/08/13 12:38:26;;;;;;;4.83;4.43;;;31.40;60.30;;;;;;5033508;28;20419;-76
2022/08/13 12:41:00;;;;;;;4.77;4.37;;;31.40;61.00;;;;;;5033845;28;20920;-75
2022/08/13 12:43:44;;;;;;;5.10;4.60;;;31.40;60.50;;;;;;5032206;28;20435;-76
2022/08/13 12:46:32;;;;;;;7.13;4.17;;;31.40;60.70;;;;;;5033401;28;20462;-76
2022/08/13 12:49:02;;;;;;;4.83;4.30;;;31.40;60.60;;;;;;5033258;28;20443;-76
2022/08/13 12:51:38;;;;;;;5.10;4.60;;;31.40;60.60;;;;;;5033708;28;20415;-75
2022/08/13 12:54:21;;;;;;;5.13;4.73;;;31.30;60.60;;;;;;5033377;28;20538;-76
2022/08/13 12:57:10;;;;;;;5.53;5.03;;;31.30;60.60;;;;;;5032267;28;20435;-75
2022/08/13 12:59:59;;;;;;;5.40;4.90;;;31.30;60.50;;;;;;5033622;28;20434;-75
2022/08/13 13:02:31;;;;;;;4.53;4.10;;;31.30;60.30;;;;;;5032522;28;20467;-75
2022/08/13 13:04:59;;;;;;;6.40;4.93;;;31.30;60.20;;;;;;5035157;28;20431;-76
2022/08/13 13:07:47;;;;;;;5.20;4.67;;;31.30;60.10;;;;;;5033503;28;20442;-77
2022/08/13 13:10:36;;;;;;;5.57;4.73;;;31.30;60.70;;;;;;5034142;28;20439;-75
2022/08/13 13:13:06;;;;;;;4.63;4.33;;;31.30;60.30;;;;;;5032256;28;20439;-75
2022/08/13 13:15:51;;;;;;;5.20;4.73;;;31.30;60.20;;;;;;5032142;28;20471;-75
2022/08/13 13:18:39;;;;;;;5.83;5.30;;;31.30;60.40;;;;;;5033567;28;20851;-76
2022/08/13 13:21:21;;;;;;;5.13;4.30;;;31.30;60.60;;;;;;5032452;28;20454;-76
2022/08/13 13:24:00;;;;;;;5.13;4.73;;;31.40;60.60;;;;;;5033498;28;20450;-76
2022/08/13 13:26:33;;;;;;;5.17;4.77;;;31.40;60.50;;;;;;5033889;28;20561;-75
2022/08/13 13:29:04;;;;;;;6.03;5.53;;;31.50;60.40;;;;;;5037428;28;20442;-76
2022/08/13 13:31:32;;;;;;;4.87;4.53;;;31.60;60.30;;;;;;5035917;28;21074;-77
2022/08/13 13:34:21;;;;;;;5.13;4.50;;;31.70;60.40;;;;;;5037106;28;20437;-76
2022/08/13 13:36:52;;;;;;;5.30;4.90;;;31.70;60.20;;;;;;5037282;28;20455;-76
2022/08/13 13:39:23;;;;;;;5.17;4.77;;;31.80;60.10;;;;;;5035917;28;20442;-76
2022/08/13 13:41:53;;;;;;;5.40;4.90;;;31.80;59.90;;;;;;5037356;28;20415;-76
2022/08/13 13:44:24;;;;;;;5.30;4.80;;;31.80;60.10;;;;;;5037043;28;20447;-75
2022/08/13 13:47:12;;;;;;;5.57;5.07;;;31.80;60.00;;;;;;5036736;28;20419;-74
2022/08/13 13:49:43;;;;;;;6.00;5.50;;;31.90;60.10;;;;;;5036396;28;20420;-76
2022/08/13 13:52:11;;;;;;;5.60;5.20;;;31.90;59.80;;;;;;5036584;28;20932;-76